Time;durP1;ratioP1;P1;durP2;ratioP2;P2;SDS_P1;SDS_P2;PMS_P1;PMS_P2;Temp;Humidity;BMP_temperature;BMP_pressure;BME280_temperature;BME280_humidity;BME280_pressure;Samples;Min_cycle;Max_cycle;Signal;HPM_P1;HPM_P2
2021/11/20 00:00:01;;;;;;;19.75;6.90;;;;;;;;;;5033494;28;20136;-89
2021/11/20 00:02:29;;;;;;;17.73;6.30;;;;;;;;;;5057046;28;20016;-89
2021/11/20 00:04:55;;;;;;;15.27;6.32;;;;;;;;;;5052633;28;20028;-89
2021/11/20 00:07:21;;;;;;;15.52;7.25;;;;;;;;;;5060996;28;20103;-89
2021/11/20 00:09:47;;;;;;;16.20;6.38;;;;;;;;;;5027461;28;20037;-88
2021/11/20 00:12:16;;;;;;;13.82;6.75;;;;;;;;;;5050233;28;20021;-88
2021/11/20 00:14:42;;;;;;;16.00;4.97;;;;;;;;;;5042624;28;20033;-89
2021/11/20 00:17:08;;;;;;;21.60;6.50;;;;;;;;;;5062533;28;20112;-88
2021/11/20 00:19:35;;;;;;;21.45;6.63;;;;;;;;;;5055245;28;20767;-87
2021/11/20 00:22:01;;;;;;;10.37;5.40;;;;;;;;;;5057562;28;20024;-88
2021/11/20 00:24:29;;;;;;;18.38;6.85;;;;;;;;;;5051667;28;20518;-89
2021/11/20 00:26:57;;;;;;;14.70;6.50;;;8.10;82.60;;;;;;5057381;28;20380;-89
2021/11/20 00:29:37;;;;;;;20.83;6.90;;;;;;;;;;5050430;28;20028;-88
2021/11/20 00:32:03;;;;;;;14.18;4.20;;;;;;;;;;5051605;28;20422;-89
2021/11/20 00:34:30;;;;;;;15.75;5.93;;;;;;;;;;5035562;28;20076;-88
2021/11/20 00:36:57;;;;;;;10.27;4.65;;;;;;;;;;5059462;28;20033;-88
2021/11/20 00:39:25;;;;;;;9.93;4.43;;;;;;;;;;5058740;28;20029;-88
2021/11/20 00:41:51;;;;;;;18.33;6.03;;;;;;;;;;5062047;28;20037;-88
2021/11/20 00:44:18;;;;;;;9.82;6.25;;;;;;;;;;5071588;28;20060;-91
2021/11/20 00:46:45;;;;;;;17.38;8.50;;;7.90;83.00;;;;;;5052985;28;20040;-89
2021/11/20 00:49:12;;;;;;;16.88;6.38;;;7.90;83.90;;;;;;5034655;28;20162;-87
2021/11/20 00:51:38;;;;;;;13.05;5.05;;;;;;;;;;5035686;28;20029;-89
2021/11/20 00:54:05;;;;;;;15.85;6.28;;;;;;;;;;5034127;28;20522;-89
2021/11/20 00:56:31;;;;;;;14.20;5.15;;;;;;;;;;5061806;28;20024;-88
2021/11/20 00:58:58;;;;;;;12.90;4.63;;;;;;;;;;5052967;28;20539;-88
2021/11/20 01:01:26;;;;;;;12.50;5.00;;;;;;;;;;5063843;28;20032;-88
2021/11/20 01:03:53;;;;;;;11.85;5.85;;;;;;;;;;5033133;28;20031;-88
2021/11/20 01:06:19;;;;;;;18.17;5.95;;;;;;;;;;5059989;28;20036;-88
2021/11/20 01:08:47;;;;;;;12.63;5.00;;;7.90;83.30;;;;;;5058117;28;20570;-88
2021/11/20 01:11:19;;;;;;;12.90;5.50;;;;;;;;;;5069780;28;20043;-89
2021/11/20 01:13:46;;;;;;;13.57;4.38;;;;;;;;;;5035145;28;20044;-88
2021/11/20 01:16:13;;;;;;;12.75;3.63;;;;;;;;;;5054762;28;20125;-88
2021/11/20 01:18:40;;;;;;;9.93;4.57;;;7.90;83.60;;;;;;5040045;28;20523;-89
2021/11/20 01:21:07;;;;;;;18.85;5.32;;;;;;;;;;5064763;28;20090;-89
2021/11/20 01:23:34;;;;;;;21.27;7.68;;;;;;;;;;5052912;28;20025;-88
2021/11/20 01:26:00;;;;;;;14.07;4.60;;;;;;;;;;5051624;28;20033;-88
2021/11/20 01:28:27;;;;;;;10.63;3.45;;;;;;;;;;5051663;28;20078;-87
2021/11/20 01:30:53;;;;;;;17.52;4.45;;;;;;;;;;5051692;28;20025;-88
2021/11/20 01:33:21;;;;;;;17.58;6.32;;;7.90;83.40;;;;;;5033768;28;20040;-88
2021/11/20 01:35:47;;;;;;;13.57;4.95;;;;;;;;;;5054275;28;20029;-89
2021/11/20 01:38:14;;;;;;;16.77;4.95;;;;;;;;;;5060972;28;20032;-88
2021/11/20 01:40:41;;;;;;;22.35;6.00;;;;;;;;;;5053066;28;20087;-89
2021/11/20 01:43:07;;;;;;;;;;;;;;;;;;5057127;28;20044;-90
2021/11/20 01:45:54;;;;;;;11.50;4.05;;;;;;;;;;5054902;28;19909;-89
2021/11/20 01:48:38;;;;;;;15.73;5.10;;;;;;;;;;5053284;28;20036;-89
2021/11/20 01:51:15;;;;;;;14.27;5.68;;;;;;;;;;5050429;28;20024;-88
2021/11/20 01:53:51;;;;;;;7.38;3.38;;;;;;;;;;5048938;28;20025;-89
2021/11/20 01:56:25;;;;;;;20.55;5.75;;;;;;;;;;5044471;28;20498;-88
2021/11/20 01:58:51;;;;;;;10.88;5.00;;;;;;;;;;5053281;28;20037;-89
2021/11/20 02:01:21;;;;;;;19.67;4.82;;;;;;;;;;5053026;28;20037;-88
2021/11/20 02:04:15;;;;;;;12.15;3.92;;;7.80;83.90;;;;;;5051691;28;20045;-88
2021/11/20 02:06:43;;;;;;;15.93;4.63;;;;;;;;;;5054664;28;20028;-89
2021/11/20 02:09:16;;;;;;;14.63;3.85;;;7.90;84.00;;;;;;5049214;28;20057;-89
2021/11/20 02:11:47;;;;;;;9.73;3.55;;;;;;;;;;5058197;28;20034;-89
2021/11/20 02:14:15;;;;;;;15.07;6.82;;;;;;;;;;5049915;28;20028;-88
2021/11/20 02:16:50;;;;;;;11.65;3.70;;;7.80;84.40;;;;;;5049147;28;20052;-90
2021/11/20 02:19:20;;;;;;;12.68;5.40;;;7.80;83.60;;;;;;5036129;28;20460;-88
2021/11/20 02:22:06;;;;;;;13.52;4.68;;;;;;;;;;5048945;28;20462;-88
2021/11/20 02:24:32;;;;;;;12.18;4.15;;;;;;;;;;5058921;28;20033;-87
2021/11/20 02:27:01;;;;;;;8.55;3.60;;;7.80;83.80;;;;;;5050532;28;20052;-89
2021/11/20 02:29:27;;;;;;;11.00;4.03;;;;;;;;;;5037399;28;20036;-87
2021/11/20 02:31:57;;;;;;;13.85;4.68;;;;;;;;;;5040799;28;20429;-89
2021/11/20 02:34:24;;;;;;;7.22;3.53;;;;;;;;;;5052776;28;20031;-88
2021/11/20 02:36:50;;;;;;;17.08;5.05;;;;;;;;;;5047655;28;20031;-88
2021/11/20 02:39:18;;;;;;;10.20;4.40;;;;;;;;;;5054905;28;20040;-88
2021/11/20 02:41:47;;;;;;;11.23;3.85;;;;;;;;;;5031657;28;20029;-90
2021/11/20 02:44:13;;;;;;;11.30;5.18;;;;;;;;;;5049060;28;20045;-88
2021/11/20 02:46:41;;;;;;;10.02;4.05;;;;;;;;;;5061375;28;20028;-90
2021/11/20 02:49:08;;;;;;;11.02;3.58;;;;;;;;;;5033297;28;20025;-89
2021/11/20 02:51:36;;;;;;;7.13;3.55;;;;;;;;;;5048152;28;20036;-89
2021/11/20 02:54:05;;;;;;;12.25;4.57;;;;;;;;;;5030714;28;20039;-89
2021/11/20 02:56:37;;;;;;;10.90;4.57;;;;;;;;;;5052978;28;20464;-89
2021/11/20 02:59:04;;;;;;;13.77;4.43;;;;;;;;;;5050340;28;20088;-89
2021/11/20 03:01:33;;;;;;;16.40;4.40;;;;;;;;;;5051153;28;20037;-89
2021/11/20 03:03:59;;;;;;;7.30;4.18;;;;;;;;;;5036797;28;20029;-89
2021/11/20 03:06:26;;;;;;;7.63;3.50;;;;;;;;;;5053890;28;20147;-88
2021/11/20 03:08:52;;;;;;;13.50;4.53;;;;;;;;;;5050056;28;20026;-88
2021/11/20 03:11:19;;;;;;;8.50;4.68;;;;;;;;;;5058720;28;20024;-88
2021/11/20 03:13:48;;;;;;;8.07;3.05;;;7.70;83.80;;;;;;5049962;28;20036;-89
2021/11/20 03:16:14;;;;;;;16.08;3.25;;;;;;;;;;5044751;28;20120;-88
2021/11/20 03:18:40;;;;;;;24.40;4.30;;;;;;;;;;5032451;28;20782;-88
2021/11/20 03:21:07;;;;;;;14.02;5.10;;;7.60;84.40;;;;;;5049296;28;20073;-90
2021/11/20 03:23:36;;;;;;;12.47;4.23;;;;;;;;;;5056273;28;20021;-89
2021/11/20 03:26:02;;;;;;;11.30;4.70;;;;;;;;;;5062615;28;20344;-89
2021/11/20 03:28:28;;;;;;;12.18;4.70;;;;;;;;;;5052709;28;21732;-90
2021/11/20 03:30:54;;;;;;;10.02;3.88;;;;;;;;;;5057414;28;20033;-88
2021/11/20 03:33:20;;;;;;;6.30;3.53;;;;;;;;;;5055227;28;20496;-89
2021/11/20 03:35:47;;;;;;;13.13;4.10;;;;;;;;;;5061659;28;20029;-89
2021/11/20 03:38:13;;;;;;;7.72;3.50;;;;;;;;;;5055326;28;20032;-89
2021/11/20 03:40:39;;;;;;;9.43;3.85;;;;;;;;;;5065513;28;20043;-89
2021/11/20 03:43:05;;;;;;;7.93;3.92;;;;;;;;;;5059152;28;20045;-88
2021/11/20 03:45:32;;;;;;;10.88;4.55;;;;;;;;;;5043500;28;20029;-89
2021/11/20 03:47:58;;;;;;;7.60;2.47;;;;;;;;;;5053245;28;20060;-89
2021/11/20 03:50:25;;;;;;;8.02;3.83;;;;;;;;;;5062622;28;20544;-89
2021/11/20 03:52:51;;;;;;;9.55;3.25;;;;;;;;;;5055597;28;20115;-87
2021/11/20 03:55:27;;;;;;;10.40;3.28;;;7.50;84.00;;;;;;5053179;28;20533;-87
2021/11/20 03:57:54;;;;;;;6.15;3.08;;;;;;;;;;5064108;28;20442;-88
2021/11/20 04:00:22;;;;;;;7.88;4.15;;;;;;;;;;5051420;28;20648;-89
2021/11/20 04:02:49;;;;;;;6.45;2.70;;;;;;;;;;5041918;28;20025;-89
2021/11/20 04:05:16;;;;;;;5.03;3.00;;;;;;;;;;5058081;28;20041;-89
2021/11/20 04:07:42;;;;;;;13.18;3.55;;;;;;;;;;5051945;28;20480;-89
2021/11/20 04:10:10;;;;;;;10.95;4.93;;;;;;;;;;5060230;28;20028;-88
2021/11/20 04:12:37;;;;;;;13.65;3.58;;;;;;;;;;5046713;28;20138;-90
2021/11/20 04:15:05;;;;;;;11.73;3.97;;;;;;;;;;5060178;28;20082;-89
2021/11/20 04:17:31;;;;;;;10.02;4.18;;;;;;;;;;5051957;28;20024;-89
2021/11/20 04:19:57;;;;;;;5.68;2.28;;;;;;;;;;5052620;28;20099;-89
2021/11/20 04:22:23;;;;;;;9.07;4.47;;;;;;;;;;5033340;28;20104;-89
2021/11/20 04:24:49;;;;;;;8.32;2.47;;;;;;;;;;5050952;28;20029;-88
2021/11/20 04:27:15;;;;;;;12.90;3.38;;;;;;;;;;5051243;28;20120;-88
2021/11/20 04:29:40;;;;;;;6.05;3.47;;;;;;;;;;5057142;28;20496;-89
2021/11/20 04:32:08;;;;;;;9.43;4.38;;;;;;;;;;5047656;28;20025;-88
2021/11/20 04:34:34;;;;;;;7.78;3.53;;;;;;;;;;5052054;28;20442;-88
2021/11/20 04:37:00;;;;;;;8.85;3.50;;;;;;;;;;5052935;28;20396;-89
2021/11/20 04:39:26;;;;;;;8.52;4.10;;;;;;;;;;5050121;28;20029;-90
2021/11/20 04:41:52;;;;;;;7.53;2.95;;;;;;;;;;5051690;28;20036;-88
2021/11/20 04:44:19;;;;;;;17.07;3.50;;;;;;;;;;5053568;28;20049;-89
2021/11/20 04:46:45;;;;;;;12.50;4.82;;;;;;;;;;5034059;28;20059;-88
2021/11/20 04:49:11;;;;;;;4.55;2.78;;;;;;;;;;5060139;28;20582;-89
2021/11/20 04:51:37;;;;;;;13.15;3.80;;;;;;;;;;5060398;28;20064;-88
2021/11/20 04:54:03;;;;;;;7.95;2.80;;;;;;;;;;5055264;28;20032;-89
2021/11/20 04:56:30;;;;;;;9.13;3.67;;;;;;;;;;5059816;28;20375;-88
2021/11/20 04:58:56;;;;;;;3.75;2.55;;;7.50;83.60;;;;;;5049532;28;20025;-89
2021/11/20 05:01:23;;;;;;;9.05;3.13;;;;;;;;;;5045364;28;20051;-89
2021/11/20 05:03:51;;;;;;;7.63;2.38;;;;;;;;;;5054815;28;20021;-89
2021/11/20 05:06:19;;;;;;;6.22;3.42;;;;;;;;;;5064220;28;20025;-89
2021/11/20 05:08:45;;;;;;;6.55;3.38;;;;;;;;;;5036162;28;20048;-88
2021/11/20 05:11:11;;;;;;;9.80;3.90;;;;;;;;;;5048586;28;20039;-89
2021/11/20 05:13:37;;;;;;;11.65;4.25;;;;;;;;;;5054336;28;20112;-89
2021/11/20 05:16:03;;;;;;;7.15;3.28;;;;;;;;;;5041266;28;20025;-88
2021/11/20 05:18:30;;;;;;;10.35;4.07;;;;;;;;;;5052680;28;20811;-91
2021/11/20 05:20:59;;;;;;;10.30;3.37;;;;;;;;;;5061923;28;20470;-88
2021/11/20 05:23:25;;;;;;;7.13;3.65;;;;;;;;;;5054393;28;20064;-89
2021/11/20 05:25:51;;;;;;;8.27;3.00;;;;;;;;;;5062877;28;20067;-87
2021/11/20 05:28:18;;;;;;;9.43;3.42;;;;;;;;;;5053278;28;20456;-90
2021/11/20 05:30:45;;;;;;;8.82;3.97;;;;;;;;;;5034076;28;20063;-89
2021/11/20 05:33:34;;;;;;;8.13;3.70;;;7.60;82.70;;;;;;5049329;28;20029;-87
2021/11/20 05:36:00;;;;;;;9.77;3.35;;;;;;;;;;5032890;28;20039;-89
2021/11/20 05:38:26;;;;;;;6.45;3.10;;;;;;;;;;5054172;28;20030;-89
2021/11/20 05:40:52;;;;;;;8.60;2.83;;;;;;;;;;5046269;28;20612;-89
2021/11/20 05:43:19;;;;;;;9.98;3.92;;;;;;;;;;5036573;28;20139;-89
2021/11/20 05:45:51;;;;;;;5.87;3.30;;;7.30;83.70;;;;;;5061345;28;20102;-88
2021/11/20 05:48:17;;;;;;;6.10;3.42;;;;;;;;;;5055111;28;20287;-90
2021/11/20 05:50:45;;;;;;;10.13;2.30;;;;;;;;;;5035596;28;21114;-90
2021/11/20 05:53:13;;;;;;;6.60;3.20;;;;;;;;;;5050801;28;20021;-89
2021/11/20 05:55:39;;;;;;;5.53;2.25;;;;;;;;;;5033424;28;20467;-88
2021/11/20 05:58:05;;;;;;;10.83;3.13;;;;;;;;;;5038120;28;20414;-89
2021/11/20 06:00:34;;;;;;;6.90;3.42;;;;;;;;;;5059118;28;20037;-89
2021/11/20 06:03:01;;;;;;;10.43;2.97;;;;;;;;;;5050786;28;20029;-87
2021/11/20 06:05:28;;;;;;;11.13;4.15;;;;;;;;;;5039614;28;20542;-88
2021/11/20 06:07:54;;;;;;;7.45;4.07;;;;;;;;;;5059237;28;20028;-89
2021/11/20 06:10:20;;;;;;;9.10;4.05;;;;;;;;;;5027655;28;20083;-88
2021/11/20 06:12:46;;;;;;;4.32;2.88;;;;;;;;;;5033537;28;20060;-88
2021/11/20 06:15:13;;;;;;;16.27;3.72;;;;;;;;;;5058066;28;20025;-88
2021/11/20 06:17:39;;;;;;;11.52;4.32;;;;;;;;;;5051364;28;20464;-89
2021/11/20 06:20:06;;;;;;;7.55;2.75;;;7.40;83.00;;;;;;5034261;28;20547;-88
2021/11/20 06:22:32;;;;;;;7.25;2.83;;;;;;;;;;5051244;28;20036;-88
2021/11/20 06:24:58;;;;;;;3.50;2.00;;;;;;;;;;5052329;28;20029;-88
2021/11/20 06:27:24;;;;;;;12.52;2.90;;;;;;;;;;5059560;28;20025;-88
2021/11/20 06:29:51;;;;;;;7.38;2.70;;;;;;;;;;5049232;28;20076;-89
2021/11/20 06:32:17;;;;;;;5.82;3.83;;;;;;;;;;5045348;28;20071;-88
2021/11/20 06:34:43;;;;;;;7.10;3.25;;;;;;;;;;5051568;28;20029;-89
2021/11/20 06:37:09;;;;;;;9.65;3.60;;;;;;;;;;5050087;28;20064;-89
2021/11/20 06:39:35;;;;;;;4.35;2.83;;;;;;;;;;5058037;28;20059;-88
2021/11/20 06:42:04;;;;;;;9.93;3.47;;;;;;;;;;5051881;28;20029;-88
2021/11/20 06:44:30;;;;;;;6.68;3.97;;;;;;;;;;5060413;28;20056;-88
2021/11/20 06:46:57;;;;;;;8.67;4.57;;;;;;;;;;5046926;28;20074;-88
2021/11/20 06:49:23;;;;;;;9.13;3.03;;;;;;;;;;5058853;28;20116;-90
2021/11/20 06:51:49;;;;;;;10.27;3.47;;;;;;;;;;5058234;28;20045;-88
2021/11/20 06:54:15;;;;;;;9.15;3.70;;;;;;;;;;5056661;28;20053;-89
2021/11/20 06:56:52;;;;;;;8.02;3.03;;;;;;;;;;5032019;28;20082;-88
2021/11/20 07:01:45;;;;;;;10.05;2.90;;;;;;;;;;5049624;28;20113;-89
2021/11/20 07:04:14;;;;;;;6.97;2.80;;;;;;;;;;5060861;28;20040;-89
2021/11/20 07:06:44;;;;;;;7.07;2.92;;;;;;;;;;5056107;28;20039;-89
2021/11/20 07:09:10;;;;;;;7.15;3.50;;;;;;;;;;5042573;28;20132;-89
2021/11/20 07:11:36;;;;;;;7.68;2.42;;;;;;;;;;5056282;28;20103;-89
2021/11/20 07:14:02;;;;;;;6.47;3.15;;;;;;;;;;5058268;28;20028;-88
2021/11/20 07:16:29;;;;;;;6.47;2.70;;;;;;;;;;5036638;28;20116;-90
2021/11/20 07:18:55;;;;;;;9.35;3.35;;;;;;;;;;5035560;28;20029;-89
2021/11/20 07:21:25;;;;;;;6.15;2.22;;;7.10;83.60;;;;;;5049221;28;20045;-89
2021/11/20 07:24:02;;;;;;;5.28;2.83;;;;;;;;;;5052720;28;20075;-88
2021/11/20 07:26:29;;;;;;;5.88;2.60;;;;;;;;;;5056063;28;20102;-88
2021/11/20 07:28:55;;;;;;;9.45;3.17;;;;;;;;;;5048583;28;20037;-91
2021/11/20 07:31:21;;;;;;;7.45;3.33;;;;;;;;;;5034181;28;20412;-89
2021/11/20 07:33:47;;;;;;;9.10;2.47;;;;;;;;;;5040195;28;20086;-89
2021/11/20 07:36:13;;;;;;;8.57;2.60;;;;;;;;;;5030669;28;20021;-89
2021/11/20 07:38:43;;;;;;;7.07;2.50;;;;;;;;;;5047088;28;20040;-92
2021/11/20 07:41:13;;;;;;;6.72;3.47;;;;;;;;;;5041315;28;20041;-94
2021/11/20 07:43:39;;;;;;;10.75;2.97;;;;;;;;;;5064032;28;20044;-91
2021/11/20 07:46:07;;;;;;;4.35;2.45;;;;;;;;;;5054362;28;20037;-90
2021/11/20 07:48:35;;;;;;;8.00;3.83;;;;;;;;;;5053185;28;20021;-90
2021/11/20 07:51:01;;;;;;;3.63;2.05;;;;;;;;;;5037464;28;20162;-90
2021/11/20 07:53:27;;;;;;;12.23;3.92;;;;;;;;;;5034699;28;20020;-89
2021/11/20 07:55:53;;;;;;;8.77;2.90;;;;;;;;;;5047616;28;20112;-89
2021/11/20 07:58:20;;;;;;;10.25;3.17;;;;;;;;;;5034781;28;20202;-91
2021/11/20 08:00:46;;;;;;;6.22;2.92;;;7.20;83.20;;;;;;5035033;28;20072;-89
2021/11/20 08:03:13;;;;;;;6.35;2.42;;;;;;;;;;5063950;28;20017;-88
2021/11/20 08:05:39;;;;;;;4.80;2.53;;;;;;;;;;5055489;28;20053;-90
2021/11/20 08:08:05;;;;;;;5.00;2.42;;;;;;;;;;5053883;28;20435;-90
2021/11/20 08:10:31;;;;;;;15.80;3.42;;;;;;;;;;5049770;28;20027;-88
2021/11/20 08:12:57;;;;;;;9.80;4.05;;;;;;;;;;5034170;28;20022;-89
2021/11/20 08:15:24;;;;;;;9.15;3.78;;;;;;;;;;5052215;28;20083;-89
2021/11/20 08:17:50;;;;;;;12.15;4.05;;;;;;;;;;5035663;28;20566;-90
2021/11/20 08:20:19;;;;;;;9.55;3.00;;;;;;;;;;5040055;28;20040;-90
2021/11/20 08:22:45;;;;;;;13.20;4.90;;;;;;;;;;5039608;28;20025;-90
2021/11/20 08:25:13;;;;;;;5.20;2.72;;;;;;;;;;5033986;28;20505;-89
2021/11/20 08:27:39;;;;;;;;;;;;;;;;;;5045002;28;20024;-90
2021/11/20 08:30:07;;;;;;;6.43;2.83;;;;;;;;;;5053624;28;19966;-89
2021/11/20 08:32:33;;;;;;;6.70;3.42;;;;;;;;;;5059370;28;20025;-89
2021/11/20 08:34:59;;;;;;;6.05;2.20;;;;;;;;;;5057553;28;20020;-89
2021/11/20 08:37:26;;;;;;;7.22;2.63;;;;;;;;;;5034705;28;20150;-89
2021/11/20 08:39:54;;;;;;;11.30;3.55;;;;;;;;;;5050040;28;20041;-88
2021/11/20 08:42:21;;;;;;;9.15;3.58;;;;;;;;;;5056327;28;20029;-90
2021/11/20 08:44:47;;;;;;;7.72;3.70;;;;;;;;;;5061473;28;20069;-89
2021/11/20 08:47:13;;;;;;;10.07;3.72;;;7.50;83.20;;;;;;5060884;28;20458;-89
2021/11/20 08:49:39;;;;;;;7.55;3.58;;;;;;;;;;5044248;28;20028;-88
2021/11/20 08:52:07;;;;;;;17.85;5.40;;;;;;;;;;5055000;28;20120;-89
2021/11/20 08:54:34;;;;;;;12.57;4.43;;;;;;;;;;5052531;28;20526;-89
2021/11/20 08:57:01;;;;;;;7.13;3.50;;;;;;;;;;5035104;28;20048;-89
2021/11/20 08:59:27;;;;;;;8.18;3.60;;;;;;;;;;5058847;28;20583;-89
2021/11/20 09:01:59;;;;;;;9.00;3.63;;;;;;;;;;5059130;28;20036;-88
2021/11/20 09:05:00;;;;;;;7.85;2.95;;;;;;;;;;5036502;28;20297;-89
2021/11/20 09:07:26;;;;;;;17.50;4.63;;;;;;;;;;4969377;28;20034;-89
2021/11/20 09:09:55;;;;;;;12.52;4.97;;;;;;;;;;4957152;28;20035;-87
2021/11/20 09:12:24;;;;;;;8.07;3.88;;;;;;;;;;4956273;28;20109;-90
2021/11/20 09:15:01;;;;;;;9.40;4.10;;;;;;;;;;4973098;28;20083;-90
2021/11/20 09:17:27;;;;;;;14.77;4.63;;;;;;;;;;4977417;28;20531;-89
2021/11/20 09:19:53;;;;;;;7.90;2.97;;;;;;;;;;4974293;28;20306;-89
2021/11/20 09:22:20;;;;;;;13.02;4.43;;;;;;;;;;4977609;28;20547;-90
2021/11/20 09:24:47;;;;;;;8.17;4.30;;;;;;;;;;4962018;28;20062;-89
2021/11/20 09:27:14;;;;;;;11.45;4.18;;;7.90;84.60;;;;;;4963919;28;20986;-89
2021/11/20 09:29:40;;;;;;;13.57;4.10;;;8.00;83.80;;;;;;4953424;28;20089;-89
2021/11/20 09:32:07;;;;;;;17.42;5.70;;;;;;;;;;4970463;28;20109;-90
2021/11/20 09:34:34;;;;;;;10.98;4.43;;;;;;;;;;4966328;28;20042;-89
2021/11/20 09:37:00;;;;;;;9.35;4.55;;;;;;;;;;4977234;28;20053;-89
2021/11/20 09:39:28;;;;;;;12.77;5.40;;;;;;;;;;4969953;28;20041;-89
2021/11/20 09:42:00;;;;;;;12.50;4.90;;;;;;;;;;5037490;28;20041;-89
2021/11/20 09:44:27;;;;;;;7.32;3.80;;;;;;;;;;5057126;28;20056;-93
2021/11/20 09:46:56;;;;;;;15.50;4.57;;;;;;;;;;5056577;28;20028;-94
2021/11/20 09:49:22;;;;;;;21.98;5.50;;;;;;;;;;5032884;28;20136;-94
2021/11/20 09:51:51;;;;;;;286.20;95.82;;;8.20;83.70;;;;;;5051328;28;20053;-94
2021/11/20 09:54:22;;;;;;;62.40;14.35;;;;;;;;;;5043886;28;20021;-96
2021/11/20 09:56:50;;;;;;;74.40;13.88;;;;;;;;;;5060827;28;20498;-89
2021/11/20 09:59:26;;;;;;;32.15;8.40;;;;;;;;;;5028417;28;20025;-88
2021/11/20 10:01:59;;;;;;;41.10;9.57;;;;;;;;;;5031786;28;20029;-88
2021/11/20 10:04:31;;;;;;;19.30;5.35;;;;;;;;;;5029891;28;20033;-89
2021/11/20 10:07:14;;;;;;;13.48;4.93;;;8.40;82.00;;;;;;5061647;28;20119;-89
2021/11/20 10:09:51;;;;;;;17.67;5.13;;;;;;;;;;5049643;28;20037;-88
2021/11/20 10:12:21;;;;;;;17.75;6.32;;;;;;;;;;5033279;28;20021;-89
2021/11/20 10:14:47;;;;;;;11.82;5.20;;;;;;;;;;5030749;28;20044;-89
2021/11/20 10:17:21;;;;;;;14.88;3.80;;;8.20;83.80;;;;;;5057527;28;20033;-90
2021/11/20 10:19:52;;;;;;;8.55;3.90;;;;;;;;;;5055089;28;20032;-91
2021/11/20 10:22:35;;;;;;;12.82;4.72;;;8.40;82.60;;;;;;5045742;28;20527;-90
2021/11/20 10:25:04;;;;;;;20.50;6.32;;;;;;;;;;5053914;28;20025;-88
2021/11/20 10:27:39;;;;;;;16.20;6.50;;;;;;;;;;5053076;28;20044;-89
2021/11/20 10:30:16;;;;;;;18.38;5.97;;;8.20;83.60;;;;;;5027630;28;20507;-89
2021/11/20 10:32:56;;;;;;;22.63;7.38;;;8.30;83.30;;;;;;5035332;28;20118;-89
2021/11/20 10:35:22;;;;;;;17.50;6.88;;;;;;;;;;5053887;28;20071;-89
2021/11/20 10:37:54;;;;;;;29.58;7.00;;;;;;;;;;5058341;28;21419;-95
2021/11/20 10:40:38;;;;;;;12.57;5.47;;;;;;;;;;5054300;28;20041;-89
2021/11/20 10:43:19;;;;;;;18.80;6.95;;;8.20;84.60;;;;;;5063003;28;20037;-90
2021/11/20 10:45:54;;;;;;;19.23;6.10;;;;;;;;;;5031999;28;20041;-89
2021/11/20 10:48:33;;;;;;;24.52;7.10;;;;;;;;;;5031735;28;20033;-90
2021/11/20 10:51:29;;;;;;;13.93;5.55;;;8.50;83.70;;;;;;5055789;28;20025;-89
2021/11/20 10:54:10;;;;;;;16.00;6.15;;;;;;;;;;5040088;28;20044;-88
2021/11/20 10:56:51;;;;;;;14.05;5.55;;;;;;;;;;5050336;28;20066;-90
2021/11/20 10:59:36;;;;;;;20.17;6.97;;;;;;;;;;5037312;28;20037;-89
2021/11/20 11:02:05;;;;;;;17.65;5.43;;;;;;;;;;5055427;28;20032;-90
2021/11/20 11:04:34;;;;;;;12.52;6.90;;;;;;;;;;5049442;28;20024;-89
2021/11/20 11:07:03;;;;;;;12.43;4.60;;;;;;;;;;5051564;28;20024;-90
2021/11/20 11:09:34;;;;;;;9.38;4.80;;;8.70;81.80;;;;;;5029353;28;20026;-88
2021/11/20 11:12:23;;;;;;;12.05;4.85;;;;;;;;;;5049753;28;20032;-90
2021/11/20 11:15:08;;;;;;;16.80;6.25;;;;;;;;;;5041665;28;20040;-90
2021/11/20 11:18:02;;;;;;;16.85;6.78;;;8.70;83.20;;;;;;5027323;28;20034;-89
2021/11/20 11:20:31;;;;;;;21.27;6.78;;;8.70;82.90;;;;;;5030414;28;20076;-89
2021/11/20 11:22:59;;;;;;;19.38;6.50;;;;;;;;;;5052313;28;20776;-89
2021/11/20 11:25:29;;;;;;;15.90;5.38;;;;;;;;;;5050504;28;20491;-89
2021/11/20 11:28:09;;;;;;;15.98;4.75;;;;;;;;;;5057123;28;20060;-90
2021/11/20 11:30:44;;;;;;;26.73;7.70;;;;;;;;;;5052412;28;21495;-89
2021/11/20 11:33:10;;;;;;;19.48;6.25;;;;;;;;;;5057111;28;20017;-90
2021/11/20 11:35:45;;;;;;;15.38;5.63;;;;;;;;;;5034249;28;20104;-90
2021/11/20 11:38:19;;;;;;;14.25;6.45;;;;;;;;;;5055949;28;20025;-89
2021/11/20 11:40:51;;;;;;;18.52;6.35;;;;;;;;;;5037937;28;20185;-90
2021/11/20 11:43:49;;;;;;;16.23;4.97;;;8.70;81.60;;;;;;5034891;28;20132;-89
2021/11/20 11:46:18;;;;;;;16.63;5.13;;;;;;;;;;5052049;28;20033;-90
2021/11/20 11:49:10;;;;;;;16.00;6.30;;;;;;;;;;5054527;28;20029;-88
2021/11/20 11:51:36;;;;;;;7.47;4.10;;;;;;;;;;4968554;28;20039;-89
2021/11/20 11:54:18;;;;;;;10.05;4.38;;;;;;;;;;4978966;28;20536;-90
2021/11/20 11:57:19;;;;;;;16.35;6.13;;;9.00;82.00;;;;;;4963760;28;20134;-90
2021/11/20 12:00:14;;;;;;;13.35;5.05;;;9.00;81.90;;;;;;4979423;28;20042;-90
2021/11/20 12:02:40;;;;;;;24.67;8.13;;;;;;;;;;4973009;28;20564;-89
2021/11/20 12:05:23;;;;;;;15.32;8.40;;;;;;;;;;4959601;28;20039;-91
2021/11/20 12:07:51;;;;;;;23.55;7.70;;;;;;;;;;4974192;28;20030;-90
2021/11/20 12:10:34;;;;;;;14.63;6.95;;;;;;;;;;4967648;28;20033;-91
2021/11/20 12:13:11;;;;;;;21.77;6.55;;;;;;;;;;4973481;28;20062;-91
2021/11/20 12:15:39;;;;;;;16.85;5.78;;;;;;;;;;4972689;28;20038;-88
2021/11/20 12:18:08;;;;;;;18.00;6.70;;;;;;;;;;4973427;28;20126;-93
2021/11/20 12:20:39;;;;;;;30.38;7.75;;;;;;;;;;4970707;28;20035;-91
2021/11/20 12:23:25;;;;;;;19.95;7.85;;;;;;;;;;4968314;28;20039;-90
2021/11/20 12:25:53;;;;;;;24.35;8.68;;;;;;;;;;4985854;28;20038;-91
2021/11/20 12:28:19;;;;;;;;;;;;;;;;;;5014577;28;20044;-91
2021/11/20 12:31:14;;;;;;;23.85;5.78;;;8.90;82.80;;;;;;5036071;28;19929;-91
2021/11/20 12:33:47;;;;;;;23.55;7.20;;;;;;;;;;5032228;28;20029;-90
2021/11/20 12:36:19;;;;;;;18.80;7.65;;;;;;;;;;5065339;28;20036;-90
2021/11/20 12:38:51;;;;;;;18.08;7.65;;;;;;;;;;5054763;28;20039;-90
2021/11/20 12:41:17;;;;;;;12.70;6.43;;;;;;;;;;5053317;28;20044;-89
2021/11/20 12:43:50;;;;;;;15.43;6.18;;;;;;;;;;5055306;28;20110;-91
2021/11/20 12:46:34;;;;;;;19.50;4.70;;;;;;;;;;5056644;28;20032;-90
2021/11/20 12:49:06;;;;;;;15.32;6.22;;;;;;;;;;5048630;28;20716;-91
2021/11/20 12:52:09;;;;;;;22.17;6.78;;;9.00;82.70;;;;;;5052381;28;20064;-89
2021/11/20 12:54:35;;;;;;;19.88;5.68;;;;;;;;;;5054303;28;20091;-89
2021/11/20 12:57:05;;;;;;;20.73;7.00;;;;;;;;;;5036058;28;20028;-92
2021/11/20 12:59:31;;;;;;;18.48;7.35;;;;;;;;;;5055077;28;20446;-90
2021/11/20 13:02:00;;;;;;;12.05;5.03;;;;;;;;;;5053453;28;20106;-91
2021/11/20 13:04:38;;;;;;;12.00;5.18;;;;;;;;;;5054193;28;20028;-90
2021/11/20 13:07:08;;;;;;;17.98;6.45;;;;;;;;;;5057404;28;20029;-92
2021/11/20 13:09:36;;;;;;;16.85;5.78;;;;;;;;;;5050270;28;20040;-91
2021/11/20 13:12:06;;;;;;;18.00;6.53;;;;;;;;;;5034453;28;20032;-90
2021/11/20 13:14:32;;;;;;;21.77;5.75;;;;;;;;;;5052155;28;20040;-91
2021/11/20 13:16:58;;;;;;;16.75;5.75;;;;;;;;;;5053374;28;20044;-89
2021/11/20 13:19:27;;;;;;;14.68;5.45;;;;;;;;;;5037866;28;20438;-90
2021/11/20 13:21:53;;;;;;;18.15;6.07;;;;;;;;;;5040766;28;20043;-90
2021/11/20 13:24:19;;;;;;;23.42;6.70;;;;;;;;;;5049052;28;20021;-91
2021/11/20 13:27:11;;;;;;;13.63;5.88;;;8.90;83.60;;;;;;5038607;28;20029;-90
2021/11/20 13:29:43;;;;;;;18.30;5.95;;;;;;;;;;5050474;28;20491;-89
2021/11/20 13:32:11;;;;;;;22.67;6.85;;;;;;;;;;5039574;28;20036;-91
2021/11/20 13:34:37;;;;;;;20.13;6.70;;;;;;;;;;5033762;28;20021;-90
2021/11/20 13:37:09;;;;;;;20.33;7.97;;;;;;;;;;5033321;28;20037;-90
2021/11/20 13:39:36;;;;;;;24.45;7.75;;;;;;;;;;5036503;28;20059;-90
2021/11/20 13:42:02;;;;;;;18.77;7.10;;;;;;;;;;5048593;28;20083;-91
2021/11/20 13:44:28;;;;;;;15.52;7.28;;;;;;;;;;5056531;28;20052;-90
2021/11/20 13:46:56;;;;;;;25.70;7.65;;;;;;;;;;5052538;28;20491;-90
2021/11/20 13:49:23;;;;;;;20.23;6.22;;;;;;;;;;5036814;28;20033;-91
2021/11/20 13:51:51;;;;;;;17.00;8.00;;;;;;;;;;5062111;28;20037;-91
2021/11/20 13:54:17;;;;;;;24.33;9.70;;;;;;;;;;5035346;28;20032;-91
2021/11/20 13:56:44;;;;;;;20.23;7.95;;;;;;;;;;5038376;28;20524;-89
2021/11/20 13:59:13;;;;;;;18.90;6.82;;;;;;;;;;5030360;28;20025;-89
2021/11/20 14:01:42;;;;;;;16.90;6.57;;;;;;;;;;5060303;28;20047;-90
2021/11/20 14:04:08;;;;;;;20.83;6.78;;;;;;;;;;5031295;28;20029;-89
2021/11/20 14:06:34;;;;;;;26.08;8.15;;;;;;;;;;5059291;28;20115;-89
2021/11/20 14:09:01;;;;;;;13.45;6.80;;;;;;;;;;5032585;28;20029;-90
2021/11/20 14:11:27;;;;;;;19.40;6.57;;;;;;;;;;5057132;28;20075;-90
2021/11/20 14:13:55;;;;;;;20.58;8.85;;;;;;;;;;5031311;28;20028;-92
2021/11/20 14:16:27;;;;;;;19.77;6.97;;;;;;;;;;5053192;28;20033;-89
2021/11/20 14:18:53;;;;;;;21.88;10.20;;;;;;;;;;5055885;28;20043;-89
2021/11/20 14:21:19;;;;;;;25.33;8.02;;;;;;;;;;5040738;28;20033;-90
2021/11/20 14:23:56;;;;;;;22.15;6.45;;;;;;;;;;5058518;28;20059;-90
2021/11/20 14:26:22;;;;;;;22.38;8.85;;;;;;;;;;5036108;28;20044;-90
2021/11/20 14:28:48;;;;;;;21.73;6.85;;;;;;;;;;5030676;28;20021;-91
2021/11/20 14:31:16;;;;;;;23.40;8.73;;;;;;;;;;5032579;28;20033;-89
2021/11/20 14:33:50;;;;;;;17.08;6.47;;;;;;;;;;5059892;28;20397;-90
2021/11/20 14:36:16;;;;;;;19.73;6.25;;;;;;;;;;5043687;28;20036;-90